createdAt,value
2018-11-01T07:19:25.193Z,99.90
2018-11-01T07:59:48.285Z,99.90
2018-11-01T10:20:01.306Z,99.90
2018-11-01T15:26:28.602Z,95.80
2018-11-01T15:29:02.215Z,96.40
2018-11-01T15:31:35.661Z,96.70
2018-11-01T15:34:09.588Z,96.80
2018-11-01T15:36:43.152Z,97.10
2018-11-01T15:39:16.664Z,97.30
2018-11-01T15:41:50.165Z,97.40
2018-11-01T15:44:23.817Z,97.90
2018-11-01T15:46:57.264Z,98.20
2018-11-01T15:49:30.728Z,98.20
2018-11-01T15:52:04.180Z,98.60
2018-11-01T15:54:37.660Z,98.50
2018-11-01T15:57:11.187Z,98.70
2018-11-01T15:59:44.718Z,98.70
2018-11-01T16:02:18.587Z,98.60
2018-11-01T16:04:52.325Z,98.50
2018-11-01T16:07:26.344Z,98.50
2018-11-01T16:09:59.961Z,98.40
2018-11-01T16:12:33.248Z,98.40
2018-11-01T16:15:11.331Z,98.40
2018-11-01T16:17:44.736Z,98.40
2018-11-01T16:20:18.467Z,98.60
2018-11-01T16:22:51.782Z,98.60
2018-11-01T16:25:25.228Z,98.60
2018-11-01T16:27:58.697Z,98.60
2018-11-01T16:30:32.129Z,99.00
2018-11-01T16:33:05.713Z,99.00
2018-11-01T16:35:39.144Z,99.10
2018-11-01T16:38:12.643Z,99.10
2018-11-01T16:40:46.085Z,99.10
2018-11-01T16:43:19.660Z,99.30
2018-11-01T16:45:53.168Z,99.30
2018-11-01T16:48:26.604Z,99.50
2018-11-01T16:51:00.129Z,99.50
2018-11-01T16:53:33.598Z,99.30
2018-11-01T16:56:07.016Z,99.40
2018-11-01T16:58:40.476Z,99.90
2018-11-01T17:01:14.131Z,99.90
2018-11-01T17:03:47.565Z,99.90
2018-11-01T17:06:21.155Z,99.90
2018-11-01T17:08:54.601Z,99.90
2018-11-01T17:11:28.107Z,99.90
2018-11-01T17:14:01.533Z,99.90
2018-11-01T17:16:35.449Z,99.90
2018-11-01T17:19:09.224Z,99.90
2018-11-01T17:21:42.631Z,99.90
2018-11-01T17:24:16.131Z,99.90
2018-11-01T17:26:49.540Z,99.90
2018-11-01T17:29:23.884Z,99.90
2018-11-01T17:31:57.302Z,99.90
2018-11-01T17:34:30.865Z,99.90
